Time;durP1;ratioP1;P1;durP2;ratioP2;P2;SDS_P1;SDS_P2;PMS_P1;PMS_P2;Temp;Humidity;BMP_temperature;BMP_pressure;BME280_temperature;BME280_humidity;BME280_pressure;Samples;Min_cycle;Max_cycle;Signal;HPM_P1;HPM_P2
2023/12/31 00:00:41;;;;;;;15.30;6.43;;;9.70;99.90;;;;;;5035443;28;20109;-86
2023/12/31 00:03:06;;;;;;;17.45;6.32;;;9.70;99.90;;;;;;5037879;28;20017;-87
2023/12/31 00:05:33;;;;;;;12.63;6.05;;;9.70;99.90;;;;;;5039415;28;20048;-85
2023/12/31 00:07:59;;;;;;;12.32;6.18;;;9.70;99.90;;;;;;5042757;28;20119;-85
2023/12/31 00:10:25;;;;;;;14.73;6.40;;;9.70;99.90;;;;;;5045802;28;20105;-85
2023/12/31 00:12:50;;;;;;;23.27;6.38;;;9.70;99.90;;;;;;5040051;28;20036;-85
2023/12/31 00:15:16;;;;;;;12.52;6.13;;;9.70;99.90;;;;;;5041207;28;20467;-87
2023/12/31 00:17:41;;;;;;;15.23;6.53;;;9.70;99.90;;;;;;5042571;28;20021;-85
2023/12/31 00:20:07;;;;;;;17.75;6.45;;;9.70;99.90;;;;;;5043084;28;20013;-88
2023/12/31 00:22:33;;;;;;;13.00;5.57;;;9.70;99.90;;;;;;5040657;28;20025;-85
2023/12/31 00:24:58;;;;;;;15.07;6.68;;;9.70;99.90;;;;;;5039232;28;20029;-84
2023/12/31 00:27:24;;;;;;;15.80;6.88;;;9.70;99.90;;;;;;5042163;28;20017;-86
2023/12/31 00:29:50;;;;;;;11.40;6.28;;;9.70;99.90;;;;;;5038190;28;20610;-85
2023/12/31 00:32:18;;;;;;;10.30;6.03;;;9.70;99.90;;;;;;5041344;28;20667;-85
2023/12/31 00:34:44;;;;;;;12.07;5.60;;;9.70;99.90;;;;;;5040521;28;20017;-85
2023/12/31 00:37:09;;;;;;;15.18;5.65;;;9.70;99.90;;;;;;5051727;28;20017;-85
2023/12/31 00:39:35;;;;;;;16.77;6.22;;;9.70;99.90;;;;;;5045959;28;20013;-85
2023/12/31 00:42:00;;;;;;;18.38;6.72;;;9.60;99.90;;;;;;5043368;28;20036;-86
2023/12/31 00:44:26;;;;;;;13.18;6.35;;;9.70;99.90;;;;;;5047653;28;20116;-86
2023/12/31 00:46:51;;;;;;;12.13;5.22;;;9.70;99.90;;;;;;5046324;28;20601;-85
2023/12/31 00:49:17;;;;;;;10.10;5.65;;;9.70;99.90;;;;;;5045931;28;20561;-87
2023/12/31 00:51:43;;;;;;;15.10;5.65;;;9.70;99.90;;;;;;5038482;28;20518;-86
2023/12/31 00:54:09;;;;;;;11.00;5.68;;;9.60;99.90;;;;;;5046518;28;20017;-85
2023/12/31 00:56:35;;;;;;;19.75;6.38;;;9.70;99.90;;;;;;5043217;28;20071;-86
2023/12/31 00:59:02;;;;;;;11.23;6.28;;;9.60;99.90;;;;;;5046634;28;20021;-86
2023/12/31 01:01:28;;;;;;;14.32;6.47;;;9.60;99.90;;;;;;5048499;28;20025;-86
2023/12/31 01:03:53;;;;;;;10.77;5.63;;;9.70;99.90;;;;;;5043127;28;20025;-84
2023/12/31 01:06:19;;;;;;;13.95;5.80;;;9.60;99.90;;;;;;5050355;28;20125;-84
2023/12/31 01:08:44;;;;;;;16.55;6.32;;;9.60;99.90;;;;;;5047880;28;20160;-84
2023/12/31 01:11:10;;;;;;;13.20;5.85;;;9.60;99.90;;;;;;5043982;28;20032;-87
2023/12/31 01:13:35;;;;;;;18.52;6.45;;;9.60;99.90;;;;;;5044423;28;20025;-85
2023/12/31 01:16:01;;;;;;;13.35;6.40;;;9.60;99.90;;;;;;5044750;28;20503;-86
2023/12/31 01:18:26;;;;;;;13.55;6.00;;;9.60;99.90;;;;;;5038904;28;20021;-85
2023/12/31 01:20:52;;;;;;;13.10;6.60;;;9.60;99.90;;;;;;5041159;28;20080;-87
2023/12/31 01:23:17;;;;;;;18.77;5.90;;;9.60;99.90;;;;;;5047741;28;20067;-87
2023/12/31 01:25:44;;;;;;;11.43;6.25;;;9.60;99.90;;;;;;5046121;28;20047;-87
2023/12/31 01:28:10;;;;;;;15.98;7.07;;;9.60;99.90;;;;;;5046167;28;20107;-87
2023/12/31 01:30:35;;;;;;;16.17;6.13;;;9.60;99.90;;;;;;5045788;28;20491;-83
2023/12/31 01:33:01;;;;;;;12.43;6.35;;;9.60;99.90;;;;;;5038198;28;20072;-86
2023/12/31 01:35:26;;;;;;;15.60;6.75;;;9.60;99.90;;;;;;5049106;28;20020;-87
2023/12/31 01:37:52;;;;;;;10.85;6.75;;;9.60;99.90;;;;;;5047937;28;20075;-85
2023/12/31 01:40:17;;;;;;;12.05;6.47;;;9.60;99.90;;;;;;5049019;28;20013;-86
2023/12/31 01:42:44;;;;;;;16.30;7.18;;;9.60;99.90;;;;;;5037933;28;20047;-85
2023/12/31 01:45:10;;;;;;;10.85;6.00;;;9.60;99.90;;;;;;5040475;28;20021;-85
2023/12/31 01:47:37;;;;;;;11.98;6.50;;;9.60;99.90;;;;;;5046287;28;20029;-85
2023/12/31 01:50:04;;;;;;;20.08;6.72;;;9.60;99.90;;;;;;5043754;28;20025;-85
2023/12/31 01:52:32;;;;;;;19.35;7.45;;;9.60;99.90;;;;;;5047434;28;20372;-84
2023/12/31 01:55:01;;;;;;;20.88;7.63;;;9.60;99.90;;;;;;5044275;28;20506;-85
2023/12/31 01:57:29;;;;;;;15.48;7.45;;;9.60;99.90;;;;;;5041658;28;20021;-86
2023/12/31 01:59:56;;;;;;;20.23;7.88;;;9.50;99.90;;;;;;5043950;28;20052;-84
2023/12/31 02:02:25;;;;;;;15.95;6.88;;;9.50;99.90;;;;;;5045210;28;20505;-85
2023/12/31 02:04:51;;;;;;;12.95;6.93;;;9.60;99.90;;;;;;5047301;28;20033;-86
2023/12/31 02:07:17;;;;;;;14.38;7.65;;;9.60;99.90;;;;;;5048545;28;20025;-87
2023/12/31 02:09:43;;;;;;;17.25;8.00;;;9.50;99.90;;;;;;5038912;28;20028;-87
2023/12/31 02:12:10;;;;;;;20.67;7.93;;;9.50;99.90;;;;;;5046022;28;20128;-86
2023/12/31 02:14:35;;;;;;;18.67;7.63;;;9.60;99.90;;;;;;5042391;28;20025;-85
2023/12/31 02:17:01;;;;;;;19.10;7.43;;;9.60;99.90;;;;;;5044438;28;20512;-86
2023/12/31 02:19:26;;;;;;;14.32;6.88;;;9.50;99.90;;;;;;5041302;28;20044;-87
2023/12/31 02:21:52;;;;;;;12.23;6.75;;;9.50;99.90;;;;;;5042123;28;20021;-86
2023/12/31 02:24:20;;;;;;;14.07;7.13;;;9.50;99.90;;;;;;5046606;28;20021;-86
2023/12/31 02:26:45;;;;;;;13.73;7.32;;;9.50;99.90;;;;;;5046062;28;20020;-85
2023/12/31 02:29:11;;;;;;;15.10;6.18;;;9.50;99.90;;;;;;5043287;28;20108;-84
2023/12/31 02:31:37;;;;;;;9.23;5.65;;;9.50;99.90;;;;;;5040541;28;20036;-86
2023/12/31 02:34:02;;;;;;;12.70;6.47;;;9.50;99.90;;;;;;5043647;28;20021;-87
2023/12/31 02:36:28;;;;;;;15.70;6.18;;;9.50;99.90;;;;;;5043926;28;20071;-87
2023/12/31 02:38:54;;;;;;;14.30;6.68;;;9.50;99.90;;;;;;5045938;28;20017;-86
2023/12/31 02:41:19;;;;;;;12.05;6.13;;;9.50;99.90;;;;;;5037201;28;20451;-86
2023/12/31 02:43:45;;;;;;;9.32;5.60;;;9.50;99.90;;;;;;5040502;28;20098;-87
2023/12/31 02:46:11;;;;;;;13.80;6.22;;;9.50;99.90;;;;;;5046437;28;20048;-85
2023/12/31 02:48:36;;;;;;;19.02;6.40;;;9.50;99.90;;;;;;5043984;28;20538;-86
2023/12/31 02:51:02;;;;;;;12.93;6.13;;;9.50;99.90;;;;;;5039539;28;20030;-86
2023/12/31 02:53:27;;;;;;;10.23;5.65;;;9.50;99.90;;;;;;5044775;28;20024;-86
2023/12/31 02:55:53;;;;;;;10.93;5.50;;;9.50;99.90;;;;;;5043998;28;20029;-87
2023/12/31 02:58:18;;;;;;;11.45;5.18;;;9.50;99.90;;;;;;5047064;28;20021;-86
2023/12/31 03:00:44;;;;;;;8.32;4.85;;;9.50;99.90;;;;;;5040140;28;20429;-86
2023/12/31 03:03:09;;;;;;;10.98;4.93;;;9.50;99.90;;;;;;5043076;28;20145;-86
2023/12/31 03:05:35;;;;;;;10.57;5.15;;;9.50;99.90;;;;;;5042664;28;20486;-87
2023/12/31 03:08:01;;;;;;;11.13;5.28;;;9.50;99.90;;;;;;5043684;28;20025;-86
2023/12/31 03:10:27;;;;;;;12.07;5.47;;;9.50;99.90;;;;;;5044299;28;20086;-85
2023/12/31 03:12:53;;;;;;;13.00;5.10;;;9.50;99.90;;;;;;5039027;28;20056;-84
2023/12/31 03:15:22;;;;;;;10.88;5.13;;;9.50;99.90;;;;;;5039431;28;20049;-87
2023/12/31 03:17:48;;;;;;;10.27;5.35;;;9.50;99.90;;;;;;5037285;28;20075;-86
2023/12/31 03:20:13;;;;;;;10.35;5.20;;;9.50;99.90;;;;;;5043739;28;20029;-85
2023/12/31 03:22:39;;;;;;;13.10;5.22;;;9.50;99.90;;;;;;5043246;28;20060;-86
2023/12/31 03:25:05;;;;;;;14.07;5.18;;;9.50;99.90;;;;;;5041560;28;20033;-86
2023/12/31 03:27:31;;;;;;;12.18;5.28;;;9.50;99.90;;;;;;5044663;28;20032;-86
2023/12/31 03:29:57;;;;;;;12.40;4.32;;;9.50;99.90;;;;;;5042834;28;20020;-85
2023/12/31 03:32:23;;;;;;;11.77;4.97;;;9.50;99.90;;;;;;5043121;28;20029;-85
2023/12/31 03:34:48;;;;;;;14.82;5.18;;;9.40;99.90;;;;;;5036288;28;20494;-86
2023/12/31 03:37:14;;;;;;;9.98;4.75;;;9.50;99.90;;;;;;5045643;28;20103;-87
2023/12/31 03:39:41;;;;;;;14.32;4.85;;;9.50;99.90;;;;;;5039287;28;20140;-84
2023/12/31 03:42:07;;;;;;;12.13;5.05;;;9.50;99.90;;;;;;5038170;28;20025;-84
2023/12/31 03:44:32;;;;;;;15.30;5.07;;;9.50;99.90;;;;;;5041443;28;20028;-85
2023/12/31 03:46:58;;;;;;;13.05;5.10;;;9.50;99.90;;;;;;5040026;28;20029;-86
2023/12/31 03:49:23;;;;;;;16.42;5.85;;;9.50;99.90;;;;;;5044265;28;20021;-86
2023/12/31 03:51:49;;;;;;;13.95;5.22;;;9.50;99.90;;;;;;5039610;28;20036;-87
2023/12/31 03:54:14;;;;;;;13.95;5.90;;;9.50;99.90;;;;;;5044671;28;20017;-85
2023/12/31 03:56:40;;;;;;;15.23;5.88;;;9.50;99.90;;;;;;5043261;28;20021;-87
2023/12/31 03:59:05;;;;;;;18.58;5.72;;;9.50;99.90;;;;;;5044535;28;20025;-86
2023/12/31 04:01:31;;;;;;;16.15;5.60;;;9.40;99.90;;;;;;5045286;28;20019;-84
2023/12/31 04:03:56;;;;;;;17.13;5.82;;;9.50;99.90;;;;;;5042477;28;20029;-84
2023/12/31 04:06:22;;;;;;;15.13;6.45;;;9.40;99.90;;;;;;5043934;28;20116;-84
2023/12/31 04:08:48;;;;;;;11.40;4.82;;;9.40;99.90;;;;;;5049153;28;20055;-84
2023/12/31 04:11:13;;;;;;;16.67;6.25;;;9.40;99.90;;;;;;5048022;28;20041;-85
2023/12/31 04:13:43;;;;;;;14.20;6.18;;;9.40;99.90;;;;;;5048469;28;20051;-86
2023/12/31 04:16:09;;;;;;;11.98;5.78;;;9.40;99.90;;;;;;5043937;28;20025;-85
2023/12/31 04:18:35;;;;;;;12.85;5.50;;;9.50;99.90;;;;;;5048551;28;20075;-84
2023/12/31 04:21:00;;;;;;;15.70;6.20;;;9.40;99.90;;;;;;5042621;28;20037;-85
2023/12/31 04:23:26;;;;;;;17.48;6.10;;;9.40;99.90;;;;;;5041438;28;20017;-85
2023/12/31 04:25:52;;;;;;;16.73;6.38;;;9.40;99.90;;;;;;5040318;28;20112;-85
2023/12/31 04:28:18;;;;;;;14.93;6.30;;;9.40;99.90;;;;;;5047181;28;20074;-85
2023/12/31 04:30:43;;;;;;;17.77;6.50;;;9.50;99.90;;;;;;5048095;28;20024;-87
2023/12/31 04:33:09;;;;;;;13.43;5.97;;;9.40;99.90;;;;;;5043275;28;20059;-86
2023/12/31 04:35:35;;;;;;;16.58;6.55;;;9.40;99.90;;;;;;5049191;28;20020;-86
2023/12/31 04:38:00;;;;;;;15.88;6.25;;;9.40;99.90;;;;;;5044389;28;20036;-85
2023/12/31 04:40:26;;;;;;;16.73;6.32;;;9.40;99.90;;;;;;5040973;28;20029;-87
2023/12/31 04:42:51;;;;;;;16.95;6.25;;;9.40;99.90;;;;;;5042320;28;20052;-84
2023/12/31 04:45:17;;;;;;;14.48;7.15;;;9.40;99.90;;;;;;5039981;28;20056;-85
2023/12/31 04:47:42;;;;;;;17.17;6.43;;;9.40;99.90;;;;;;5047874;28;20096;-85
2023/12/31 04:50:08;;;;;;;15.35;6.72;;;9.40;99.90;;;;;;5036851;28;20017;-85
2023/12/31 04:52:34;;;;;;;19.20;6.97;;;9.40;99.90;;;;;;5045076;28;20033;-85
2023/12/31 04:54:59;;;;;;;12.52;5.88;;;9.40;99.90;;;;;;5041581;28;20111;-87
2023/12/31 04:57:25;;;;;;;15.02;7.00;;;9.40;99.90;;;;;;5048866;28;20020;-84
2023/12/31 04:59:51;;;;;;;19.42;6.38;;;9.40;99.90;;;;;;5047844;28;20112;-87
2023/12/31 05:02:16;;;;;;;19.15;7.25;;;9.40;99.90;;;;;;5042188;28;20139;-85
2023/12/31 05:04:42;;;;;;;18.23;6.68;;;9.40;99.90;;;;;;5046977;28;20363;-87
2023/12/31 05:07:09;;;;;;;21.02;8.27;;;9.40;99.90;;;;;;5042534;28;20505;-84
2023/12/31 05:09:35;;;;;;;16.08;6.07;;;9.40;99.90;;;;;;5042737;28;20025;-85
2023/12/31 05:12:01;;;;;;;14.07;6.95;;;9.40;99.90;;;;;;5050760;28;20548;-86
2023/12/31 05:14:26;;;;;;;15.38;6.95;;;9.40;99.90;;;;;;5049934;28;20021;-85
2023/12/31 05:16:52;;;;;;;16.13;6.85;;;9.40;99.90;;;;;;5043217;28;20025;-86
2023/12/31 05:19:17;;;;;;;17.67;7.25;;;9.40;99.90;;;;;;5045941;28;20025;-85
2023/12/31 05:21:43;;;;;;;18.90;7.55;;;9.40;99.90;;;;;;5041682;28;20028;-85
2023/12/31 05:24:09;;;;;;;14.02;7.22;;;9.40;99.90;;;;;;5046320;28;20048;-84
2023/12/31 05:26:34;;;;;;;19.80;7.07;;;9.40;99.90;;;;;;5040405;28;20028;-86
2023/12/31 05:29:00;;;;;;;16.05;6.68;;;9.40;99.90;;;;;;5038764;28;20094;-84
2023/12/31 05:31:26;;;;;;;18.00;7.57;;;9.40;99.90;;;;;;5042718;28;20036;-84
2023/12/31 05:33:51;;;;;;;16.10;7.18;;;9.40;99.90;;;;;;5048186;28;20068;-85
2023/12/31 05:36:17;;;;;;;11.88;6.25;;;9.40;99.90;;;;;;5043970;28;20036;-84
2023/12/31 05:38:42;;;;;;;16.00;7.43;;;9.40;99.90;;;;;;5045170;28;20430;-86
2023/12/31 05:41:08;;;;;;;18.20;7.85;;;9.40;99.90;;;;;;5045396;28;20114;-87
2023/12/31 05:43:33;;;;;;;16.80;7.20;;;9.40;99.90;;;;;;5040734;28;20032;-84
2023/12/31 05:46:00;;;;;;;17.83;7.95;;;9.40;99.90;;;;;;5048027;28;20029;-86
2023/12/31 05:48:26;;;;;;;20.08;8.35;;;9.40;99.90;;;;;;5045568;28;20027;-85
2023/12/31 05:50:52;;;;;;;14.07;6.88;;;9.40;99.90;;;;;;5046834;28;20108;-87
2023/12/31 05:53:17;;;;;;;16.58;7.13;;;9.40;99.90;;;;;;5038663;28;20079;-85
2023/12/31 05:55:43;;;;;;;15.35;6.47;;;9.40;99.90;;;;;;5044109;28;20048;-85
2023/12/31 05:58:09;;;;;;;18.27;7.25;;;9.40;99.90;;;;;;5042612;28;20025;-87
2023/12/31 06:00:35;;;;;;;16.73;7.10;;;9.40;99.90;;;;;;5044483;28;20024;-87
2023/12/31 06:03:00;;;;;;;17.90;7.30;;;9.30;99.90;;;;;;5045683;28;20063;-88
2023/12/31 06:05:26;;;;;;;12.82;6.93;;;9.40;99.90;;;;;;5042355;28;20026;-84
2023/12/31 06:07:51;;;;;;;16.80;7.60;;;9.30;99.90;;;;;;5044303;28;20384;-85
2023/12/31 06:10:17;;;;;;;17.92;6.78;;;9.40;99.90;;;;;;5044697;28;20483;-87
2023/12/31 06:12:42;;;;;;;14.25;7.03;;;9.30;99.90;;;;;;5039289;28;20021;-85
2023/12/31 06:15:09;;;;;;;15.07;6.78;;;9.30;99.90;;;;;;5047703;28;20021;-86
2023/12/31 06:17:35;;;;;;;15.27;6.43;;;9.30;99.90;;;;;;5038467;28;20399;-86
2023/12/31 06:20:01;;;;;;;15.98;7.07;;;9.30;99.90;;;;;;5043557;28;20024;-86
2023/12/31 06:22:27;;;;;;;16.35;8.05;;;9.30;99.90;;;;;;5046952;28;20049;-87
2023/12/31 06:24:52;;;;;;;15.40;7.15;;;9.30;99.90;;;;;;5046471;28;20415;-87
2023/12/31 06:27:18;;;;;;;13.93;6.43;;;9.30;99.90;;;;;;5037349;28;20479;-86
2023/12/31 06:29:43;;;;;;;18.00;7.43;;;9.30;99.90;;;;;;5043986;28;20025;-87
2023/12/31 06:32:09;;;;;;;14.10;6.85;;;9.30;99.90;;;;;;5039981;28;20032;-85
2023/12/31 06:34:34;;;;;;;19.20;6.57;;;9.30;99.90;;;;;;5041177;28;20479;-85
2023/12/31 06:37:00;;;;;;;15.57;6.95;;;9.30;99.90;;;;;;5042014;28;20013;-87
2023/12/31 06:39:26;;;;;;;17.15;7.32;;;9.30;99.90;;;;;;5037249;28;20017;-85
2023/12/31 06:41:52;;;;;;;14.75;7.03;;;9.30;99.90;;;;;;5045913;28;20038;-86
2023/12/31 06:44:17;;;;;;;18.08;7.13;;;9.30;99.90;;;;;;5040545;28;20481;-84
2023/12/31 06:46:43;;;;;;;14.77;6.90;;;9.20;99.90;;;;;;5039719;28;20041;-85
2023/12/31 06:49:08;;;;;;;16.67;7.47;;;9.20;99.90;;;;;;5042157;28;20074;-85
2023/12/31 06:51:34;;;;;;;18.77;6.93;;;9.20;99.90;;;;;;5047425;28;20548;-84
2023/12/31 06:53:59;;;;;;;17.83;7.45;;;9.20;99.90;;;;;;5045364;28;20434;-84
2023/12/31 06:56:25;;;;;;;14.48;6.97;;;9.20;99.90;;;;;;5042770;28;20059;-84
2023/12/31 06:58:50;;;;;;;21.77;7.10;;;9.20;99.90;;;;;;5041226;28;20030;-87
2023/12/31 07:01:16;;;;;;;20.10;7.40;;;9.20;99.90;;;;;;5044387;28;20055;-86
2023/12/31 07:03:43;;;;;;;18.67;8.02;;;9.20;99.90;;;;;;5037099;28;20494;-84
2023/12/31 07:06:08;;;;;;;16.88;8.20;;;9.20;99.90;;;;;;5032705;28;20686;-86
2023/12/31 07:08:34;;;;;;;15.30;6.93;;;9.20;99.90;;;;;;5039689;28;20112;-84
2023/12/31 07:11:00;;;;;;;13.20;6.88;;;9.20;99.90;;;;;;5040627;28;20056;-85
2023/12/31 07:13:25;;;;;;;16.38;7.35;;;9.20;99.90;;;;;;5039948;28;20018;-85
2023/12/31 07:15:51;;;;;;;14.98;7.07;;;9.20;99.90;;;;;;5037150;28;20025;-84
2023/12/31 07:18:17;;;;;;;18.48;7.75;;;9.30;99.90;;;;;;5039801;28;20148;-85
2023/12/31 07:20:42;;;;;;;17.20;7.22;;;9.30;99.90;;;;;;5042985;28;20017;-85
2023/12/31 07:23:08;;;;;;;14.32;6.70;;;9.30;99.90;;;;;;5041435;28;20025;-85
2023/12/31 07:25:33;;;;;;;17.73;7.05;;;9.20;99.90;;;;;;5038612;28;20514;-85
2023/12/31 07:27:59;;;;;;;16.55;6.70;;;9.30;99.90;;;;;;5039589;28;20091;-86
2023/12/31 07:30:25;;;;;;;15.23;6.85;;;9.30;99.90;;;;;;5044133;28;20035;-86
2023/12/31 07:32:51;;;;;;;19.08;7.68;;;9.30;99.90;;;;;;5039401;28;20076;-87
2023/12/31 07:35:17;;;;;;;15.30;6.78;;;9.30;99.90;;;;;;5040344;28;20547;-87
2023/12/31 07:37:43;;;;;;;16.55;6.93;;;9.30;99.90;;;;;;5045074;28;20493;-84
2023/12/31 07:40:10;;;;;;;15.45;7.65;;;9.20;99.90;;;;;;5044481;28;20025;-86
2023/12/31 07:42:37;;;;;;;18.05;6.85;;;9.30;99.90;;;;;;5038343;28;20041;-84
2023/12/31 07:45:04;;;;;;;17.70;7.13;;;9.20;99.90;;;;;;5037648;28;20086;-87
2023/12/31 07:47:30;;;;;;;16.73;7.68;;;9.30;99.90;;;;;;5041418;28;20028;-85
2023/12/31 07:49:56;;;;;;;14.13;6.38;;;9.30;99.90;;;;;;5038073;28;20056;-85
2023/12/31 07:52:21;;;;;;;19.88;7.00;;;9.30;99.90;;;;;;5039581;28;20026;-84
2023/12/31 07:54:47;;;;;;;17.77;7.20;;;9.30;99.90;;;;;;5039739;28;20574;-84
2023/12/31 07:57:13;;;;;;;17.45;7.53;;;9.30;99.90;;;;;;5034879;28;20100;-85
2023/12/31 07:59:38;;;;;;;25.67;7.78;;;9.20;99.90;;;;;;5036653;28;20168;-85
2023/12/31 08:02:04;;;;;;;20.23;7.82;;;9.20;99.90;;;;;;5038137;28;20492;-85
2023/12/31 08:04:29;;;;;;;29.75;8.27;;;9.20;99.90;;;;;;5054483;28;20447;-85
2023/12/31 08:06:55;;;;;;;20.67;8.25;;;9.20;99.90;;;;;;5038698;28;20052;-86
2023/12/31 08:09:21;;;;;;;20.38;7.55;;;9.30;99.90;;;;;;5042533;28;20112;-85
2023/12/31 08:11:46;;;;;;;17.77;7.57;;;9.30;99.90;;;;;;5040769;28;20390;-85
2023/12/31 08:14:12;;;;;;;15.75;7.20;;;9.30;99.90;;;;;;5041778;28;20017;-85
2023/12/31 08:16:38;;;;;;;18.92;7.05;;;9.30;99.90;;;;;;5036917;28;20047;-84
2023/12/31 08:19:04;;;;;;;16.38;6.88;;;9.30;99.90;;;;;;5043442;28;20500;-86
2023/12/31 08:21:30;;;;;;;17.20;7.28;;;9.30;99.90;;;;;;5038577;28;20052;-85
2023/12/31 08:23:56;;;;;;;13.95;6.63;;;9.30;99.90;;;;;;5035462;28;20060;-85
2023/12/31 08:26:22;;;;;;;19.42;7.47;;;9.30;99.90;;;;;;5037778;28;20029;-86
2023/12/31 08:28:47;;;;;;;21.30;6.85;;;9.30;99.90;;;;;;5039532;28;20053;-85
2023/12/31 08:31:16;;;;;;;21.30;7.65;;;9.30;99.90;;;;;;5041232;28;20036;-85
2023/12/31 08:33:43;;;;;;;16.10;6.95;;;9.30;99.90;;;;;;5031540;28;20075;-84
2023/12/31 08:36:08;;;;;;;22.45;6.47;;;9.30;99.90;;;;;;5037702;28;20503;-84
2023/12/31 08:38:34;;;;;;;19.45;7.20;;;9.30;99.90;;;;;;5038596;28;20022;-87
2023/12/31 08:41:00;;;;;;;25.10;7.38;;;9.30;99.90;;;;;;5037095;28;20038;-86
2023/12/31 08:43:28;;;;;;;14.80;6.13;;;9.30;99.90;;;;;;5039613;28;20079;-86
2023/12/31 08:45:54;;;;;;;17.58;6.43;;;9.30;99.90;;;;;;5041330;28;20111;-85
2023/12/31 08:48:20;;;;;;;21.08;6.45;;;9.30;99.90;;;;;;5037128;28;20028;-85
2023/12/31 08:50:46;;;;;;;15.80;6.75;;;9.30;99.90;;;;;;5036400;28;20044;-87
2023/12/31 08:53:12;;;;;;;15.02;6.15;;;9.30;99.90;;;;;;5041756;28;20112;-85
2023/12/31 08:55:38;;;;;;;23.48;7.25;;;9.30;99.90;;;;;;5045140;28;20099;-84
2023/12/31 08:58:04;;;;;;;15.68;3.80;;;9.30;99.90;;;;;;5045021;28;20021;-88
2023/12/31 09:00:32;;;;;;;9.98;3.53;;;10.70;99.90;;;;;;5043387;28;20482;-90
2023/12/31 09:02:59;;;;;;;14.77;4.78;;;12.30;99.90;;;;;;5045015;28;20541;-88
2023/12/31 09:05:24;;;;;;;22.30;4.68;;;12.70;99.90;;;;;;5051468;28;20410;-89
2023/12/31 09:07:50;;;;;;;18.63;4.30;;;12.80;99.90;;;;;;5040540;28;20029;-88
2023/12/31 09:10:15;;;;;;;16.92;4.53;;;12.90;99.90;;;;;;5040927;28;20076;-83
2023/12/31 09:12:41;;;;;;;13.38;5.18;;;12.80;99.90;;;;;;5040817;28;20029;-84
2023/12/31 09:15:07;;;;;;;15.25;5.10;;;11.60;99.90;;;;;;5039676;28;20028;-83
2023/12/31 09:17:35;;;;;;;11.88;4.82;;;10.70;99.90;;;;;;5038853;28;20029;-83
2023/12/31 09:20:04;;;;;;;8.80;4.93;;;10.10;99.90;;;;;;5035888;28;20021;-83
2023/12/31 09:22:31;;;;;;;10.50;4.93;;;9.80;99.90;;;;;;5036243;28;20032;-85
2023/12/31 09:24:56;;;;;;;14.00;5.72;;;9.70;99.90;;;;;;5040099;28;20714;-83
2023/12/31 09:27:22;;;;;;;11.95;6.00;;;9.60;99.90;;;;;;5041419;28;20021;-84
2023/12/31 09:29:47;;;;;;;15.07;6.22;;;9.50;99.90;;;;;;5039745;28;20028;-82
2023/12/31 09:32:13;;;;;;;10.40;5.70;;;9.50;99.90;;;;;;5040630;28;20032;-85
2023/12/31 09:34:38;;;;;;;16.02;6.03;;;9.50;99.90;;;;;;5037015;28;20075;-85
2023/12/31 09:37:04;;;;;;;12.35;6.13;;;9.50;99.90;;;;;;5039992;28;20029;-83
2023/12/31 09:39:30;;;;;;;10.88;5.93;;;9.50;99.90;;;;;;5043376;28;20020;-84
2023/12/31 09:42:03;;;;;;;14.27;6.60;;;9.50;99.90;;;;;;5043677;28;20033;-84
2023/12/31 09:44:29;;;;;;;12.43;6.35;;;9.50;99.90;;;;;;5043526;28;20048;-85
2023/12/31 09:47:05;;;;;;;12.10;6.28;;;9.50;99.90;;;;;;5037895;28;20029;-85
2023/12/31 09:49:33;;;;;;;13.13;6.70;;;9.50;99.90;;;;;;5040181;28;20578;-79
2023/12/31 09:52:01;;;;;;;14.30;6.75;;;9.50;99.90;;;;;;5038915;28;20047;-81
2023/12/31 09:54:29;;;;;;;13.80;7.38;;;9.40;99.90;;;;;;5037716;28;20021;-81
2023/12/31 09:56:56;;;;;;;14.07;7.35;;;9.40;99.90;;;;;;5045155;28;20021;-81
2023/12/31 09:59:24;;;;;;;15.48;7.03;;;9.40;99.90;;;;;;5040121;28;20016;-80
2023/12/31 10:01:53;;;;;;;14.52;7.50;;;9.40;99.90;;;;;;5035599;28;20120;-79
2023/12/31 10:04:19;;;;;;;12.82;7.05;;;9.40;99.90;;;;;;5039809;28;20570;-81
2023/12/31 10:06:44;;;;;;;12.32;7.47;;;9.40;99.90;;;;;;5038059;28;20108;-80
2023/12/31 10:09:12;;;;;;;10.40;6.20;;;9.50;99.90;;;;;;5044215;28;20474;-83
2023/12/31 10:11:39;;;;;;;14.50;7.28;;;9.40;99.90;;;;;;5039247;28;20501;-81
2023/12/31 10:14:04;;;;;;;15.13;7.65;;;9.40;99.90;;;;;;5038038;28;20074;-81
2023/12/31 10:16:40;;;;;;;12.38;6.82;;;9.40;99.90;;;;;;5040544;28;20025;-83
2023/12/31 10:19:07;;;;;;;16.95;7.97;;;9.40;99.90;;;;;;5055760;28;20028;-81
2023/12/31 10:21:33;;;;;;;13.85;7.50;;;9.50;99.90;;;;;;5041006;28;20037;-80
2023/12/31 10:23:58;;;;;;;13.35;6.53;;;9.50;99.90;;;;;;5034493;28;20021;-80
2023/12/31 10:26:24;;;;;;;14.25;7.57;;;9.50;99.90;;;;;;5036961;28;20538;-81
2023/12/31 10:28:50;;;;;;;17.15;7.65;;;9.50;99.90;;;;;;5038241;28;20721;-81
2023/12/31 10:31:16;;;;;;;16.55;8.13;;;9.50;99.90;;;;;;5040285;28;20037;-80
2023/12/31 10:33:41;;;;;;;13.25;7.40;;;9.50;99.90;;;;;;5041741;28;20044;-79
2023/12/31 10:36:09;;;;;;;12.75;7.80;;;9.50;99.90;;;;;;5039318;28;20523;-81
2023/12/31 10:38:48;;;;;;;12.65;7.68;;;9.50;99.90;;;;;;5036303;28;20041;-79
2023/12/31 10:41:25;;;;;;;16.38;8.60;;;9.50;99.90;;;;;;5038712;28;20033;-80
2023/12/31 10:43:52;;;;;;;17.17;8.00;;;9.50;99.90;;;;;;5037743;28;20040;-81
2023/12/31 10:46:19;;;;;;;15.75;7.63;;;9.40;99.90;;;;;;5042703;28;20028;-80
2023/12/31 10:49:01;;;;;;;20.45;8.63;;;9.50;99.90;;;;;;5034237;28;20503;-81
2023/12/31 10:51:26;;;;;;;18.58;7.85;;;9.40;99.90;;;;;;5036809;28;20024;-81
2023/12/31 10:53:57;;;;;;;19.70;8.50;;;9.50;99.90;;;;;;5040587;28;20032;-80
2023/12/31 10:56:25;;;;;;;18.02;8.88;;;9.50;99.90;;;;;;5032816;28;20057;-81
2023/12/31 10:58:54;;;;;;;18.85;8.95;;;9.50;99.90;;;;;;5035640;28;20025;-82
2023/12/31 11:01:22;;;;;;;17.13;8.43;;;9.50;99.90;;;;;;5044229;28;20032;-82
2023/12/31 11:03:48;;;;;;;17.50;9.23;;;9.50;99.90;;;;;;5032728;28;20025;-82
2023/12/31 11:06:16;;;;;;;15.38;8.50;;;9.50;99.90;;;;;;5040358;28;20453;-88
2023/12/31 11:08:45;;;;;;;16.08;9.00;;;9.60;99.90;;;;;;5041063;28;20025;-81
2023/12/31 11:11:11;;;;;;;16.02;7.55;;;10.30;99.90;;;;;;5041600;28;20025;-81
2023/12/31 11:13:39;;;;;;;14.77;7.85;;;10.10;99.90;;;;;;5033100;28;20033;-82
2023/12/31 11:16:09;;;;;;;17.23;7.68;;;9.90;99.90;;;;;;5035635;28;20049;-82
2023/12/31 11:19:04;;;;;;;16.27;7.63;;;9.80;99.90;;;;;;5035966;28;20155;-82
2023/12/31 11:21:47;;;;;;;15.93;7.85;;;9.80;99.90;;;;;;5036391;28;20503;-82
2023/12/31 11:24:18;;;;;;;13.90;8.02;;;9.80;99.90;;;;;;5042311;28;20091;-81
2023/12/31 11:26:44;;;;;;;12.90;8.05;;;9.80;99.90;;;;;;5037382;28;20032;-81
2023/12/31 11:29:13;;;;;;;15.98;7.60;;;9.90;99.90;;;;;;5036503;28;20487;-80
2023/12/31 11:31:41;;;;;;;15.90;7.75;;;9.80;99.90;;;;;;5037853;28;20079;-84
2023/12/31 11:34:07;;;;;;;16.48;7.47;;;9.80;99.90;;;;;;5031486;28;20031;-87
2023/12/31 11:36:33;;;;;;;11.88;5.60;;;10.10;99.90;;;;;;5034371;28;20100;-84
2023/12/31 11:39:14;;;;;;;8.40;5.05;;;10.80;99.90;;;;;;5036743;28;20151;-82
2023/12/31 11:41:45;;;;;;;8.27;5.65;;;10.40;99.90;;;;;;5040926;28;20029;-82
2023/12/31 11:44:29;;;;;;;11.50;5.38;;;10.20;99.90;;;;;;5036299;28;20112;-85
2023/12/31 11:46:55;;;;;;;13.02;6.38;;;10.10;99.90;;;;;;5043736;28;20025;-83
2023/12/31 11:49:20;;;;;;;15.77;6.20;;;10.00;99.90;;;;;;5035928;28;20036;-82
2023/12/31 11:51:51;;;;;;;9.57;5.60;;;10.00;99.90;;;;;;5034229;28;20025;-82
2023/12/31 11:54:32;;;;;;;12.68;5.60;;;10.00;99.90;;;;;;5033884;28;20120;-83
2023/12/31 11:56:58;;;;;;;12.77;6.30;;;10.00;99.90;;;;;;5044883;28;20030;-83
2023/12/31 11:59:24;;;;;;;10.75;5.72;;;10.00;99.90;;;;;;5032394;28;20108;-83
2023/12/31 12:01:51;;;;;;;11.23;6.40;;;10.00;99.90;;;;;;5032750;28;20159;-82
2023/12/31 12:04:17;;;;;;;11.55;6.53;;;10.00;99.90;;;;;;5029883;28;20053;-82
2023/12/31 12:06:43;;;;;;;10.85;5.72;;;9.90;99.90;;;;;;5034491;28;20079;-82
2023/12/31 12:09:08;;;;;;;11.45;6.07;;;9.90;99.90;;;;;;5038028;28;20059;-83
2023/12/31 12:11:35;;;;;;;11.15;6.25;;;9.90;99.90;;;;;;5033826;28;20120;-82
2023/12/31 12:14:01;;;;;;;10.63;5.70;;;9.90;99.90;;;;;;5029531;28;20033;-83
2023/12/31 12:16:30;;;;;;;12.90;6.28;;;9.90;99.90;;;;;;5041049;28;20017;-83
2023/12/31 12:18:59;;;;;;;9.43;5.45;;;9.80;99.90;;;;;;5033796;28;20017;-83
2023/12/31 12:21:25;;;;;;;13.57;5.97;;;9.80;99.90;;;;;;5035779;28;20029;-82
2023/12/31 12:23:53;;;;;;;12.45;5.90;;;9.70;99.90;;;;;;5035476;28;20049;-82
2023/12/31 12:26:19;;;;;;;15.30;6.18;;;9.70;99.90;;;;;;5033502;28;20021;-83
2023/12/31 12:28:47;;;;;;;13.75;6.45;;;9.70;99.90;;;;;;5035217;28;20486;-84
2023/12/31 12:31:17;;;;;;;13.77;5.53;;;9.70;99.90;;;;;;5036142;28;20044;-83
2023/12/31 12:33:44;;;;;;;;;;;9.70;99.90;;;;;;5035906;28;20024;-84
2023/12/31 12:36:10;;;;;;;9.93;4.97;;;9.60;99.90;;;;;;5044801;28;20003;-82
2023/12/31 12:38:37;;;;;;;9.77;4.93;;;9.60;99.90;;;;;;5037036;28;20104;-82
2023/12/31 12:41:04;;;;;;;8.88;4.70;;;9.60;99.90;;;;;;5035085;28;20021;-83
2023/12/31 12:43:33;;;;;;;11.30;5.32;;;9.60;99.90;;;;;;5037853;28;20031;-82